ペトロパブロフスク・カムチャツキー の空港の天気 - METARとTAF

ペトロパブロフスク・カムチャツキー空港 ( UHPP / PKC ) - ロシア ペトロパブロフスク・カムチャツキー
飛行場実況気象(Metar)
観測時間02/26 14:00 MAGT (02/26 03:00 UTC)
風向・風速静穏 0m/s
視程10km以上
天気現象
なし
気温-2℃
湿度54%
気圧1009hPa
METARUHPP 260300Z 00000MPS 9999 NSC M02/M10 Q1009 R34L/CLRD70 NOSIG RMK MT OBSC QFE753/1004
過去の天気等 Google飛行場航空写真 Wunderground天気予報

過去48時間のMETAR

飛行場予報(TAF)
発表時間: 2/26 12:59 MAGT (2/26 01:59 UTC)
予報対象時間: 26日14時 MAGT ~ 27日20時 MAGT
風向・風速北西 3m/s 瞬間風速 12m/s
視程10km以上
全天の4割程度の積乱雲 雲底高度 910m
26日14時 MAGT ~ 26日17時 MAGT に一時的に
風向・風速南南東 3m/s 瞬間風速 12m/s
26日23時 MAGT から
風向・風速北 3m/s 瞬間風速 12m/s
視程10km以上
全天の8割程度の積乱雲 雲底高度 910m
26日23時 MAGT ~ 27日5時 MAGT に一時的に
視程3,100m
天気現象弱いしゅう雪
全天の8割程度の雲 雲底高度 340m
全天の8割程度の積乱雲 雲底高度 610m
27日5時 MAGT ~ 27日17時 MAGT に一時的に
風向・風速南南東 3m/s 瞬間風速 12m/s
視程1,000m
天気現象しゅう雪
全天を覆う雲 鉛直視程 90m
TAF UHPP 260159Z 2603/2709 31003G12MPS 9999 SCT030CB
TEMPO 2603/2606 16003G12MPS
FM261200 01003G12MPS 9999 BKN030CB
TEMPO 2612/2618 3100 -SHSN BKN011 BKN020CB
TEMPO 2618/2706 16003G12MPS 1000 SHSN VV003